Hinsdale, MT

8:01 PM MDT on October 21, 2014 (GMT -0600)
Wokal-Glasgow International | Change Station
CLOSE
Current Station
Airport
Location: Glasgow,
Elevation: 2293 ft
Nearby Weather Stations

Elev 2293 ft 48.21 °N, 106.62 °W | Updated 8 minutes ago

Overcast
Overcast
57 °F
Feels Like 57 °F
N
9
Wind Variable Wind from NW

Today
High -- | Low -- °F
--% Chance of Precip.
Yesterday
High -- | Low -- °F
Precip. -- in
7:37 AM 6:07 PM
Waning Crescent, 3% visible
Pressure 29.67 in
Visibility 10.0 miles
Clouds Scattered Clouds 8500 ft
Mostly Cloudy 11000 ft
Dew Point 44 °F
Humidity 62%
Rainfall 0.00 in
Snow Depth Not available.
UV 0 out of 12
Pollen 2.20 out of 12
Air Quality Not available.
Flu Activity No Activity
METAR KGGW 220153Z AUTO 31008KT 10SM SCT085 BKN110 14/07 A2965 RMK AO2 SLP046 T01390067

More Conditions Fewer Conditions

Pressure 29.67 in
Visibility 10.0 miles
Clouds Scattered Clouds 8500 ft
Mostly Cloudy 11000 ft
Dew Point 44 °F
Humidity 62%
Rainfall 0.00 in
Snow Depth Not available.
UV 0 out of 12
Pollen 2.20 out of 12
Air Quality Not available.
Flu Activity No Activity
METAR KGGW 220153Z AUTO 31008KT 10SM SCT085 BKN110 14/07 A2965 RMK AO2 SLP046 T01390067

More Conditions Fewer Conditions

10-Day Weather Forecast

Almanac

Astronomy

Oct. 21, 2014 Rise Set
Actual Time 7:37 AM MDT 6:07 PM MDT
Civil Twilight 7:05 AM MDT 6:39 PM MDT
Nautical Twilight 6:28 AM MDT 7:16 PM MDT
Astronomical Twilight 5:52 AM MDT 7:52 PM MDT
Moon 5:14 AM MDT (10/21) 5:11 PM MDT (10/21)
Length of Visible Light 11h 34m
Length of Day
10h 30m
Tomorrow will be 3m 20s shorter.
Waning Crescent, 3% of the Moon is Illuminated
Today
Waning Crescent
Oct 23
New
Oct 30
First Quarter
Nov 6
Full
Nov 14
Last Quarter

Today's Extremes

State Highs State Lows

Community

WunderPhotos

Upload Photos

1,763,852 photos uploaded!

Nearby

Snow Depth

Station Depth Elevation
Crystal Lake 1 in 6050 ft
Spur Park 0 in 8100 ft
Deadman Creek 0 in 6450 ft
Onion Park 0 in 7410 ft
Stringer Creek 0 in 6550 ft

Earthquake Activity

City Distance Mag. Time & Date
No recent earthquake activity has been reported nearby.
Minimum magnitude displayed is 2.5.

Coastal Water Temperatures

Place Temperature
No Stations Reporting

Nearby Weather Stations